Time;durP1;ratioP1;P1;durP2;ratioP2;P2;SDS_P1;SDS_P2;PMS_P1;PMS_P2;Temp;Humidity;BMP_temperature;BMP_pressure;BME280_temperature;BME280_humidity;BME280_pressure;Samples;Min_cycle;Max_cycle;Signal;HPM_P1;HPM_P2
2022/03/10 00:02:00;;;;;;;29.40;15.20;;;3.80;93.40;;;;;;5029124;28;20060;-59
2022/03/10 00:05:04;;;;;;;29.88;16.40;;;3.80;94.10;;;;;;5029334;28;20072;-60
2022/03/10 00:08:08;;;;;;;22.77;13.02;;;3.80;94.70;;;;;;5029908;28;20057;-62
2022/03/10 00:11:12;;;;;;;37.25;19.38;;;3.80;94.90;;;;;;5028961;28;20045;-60
2022/03/10 00:14:16;;;;;;;29.08;14.90;;;3.80;95.20;;;;;;5029829;28;20396;-59
2022/03/10 00:17:21;;;;;;;19.75;11.93;;;3.70;95.80;;;;;;5029538;28;20056;-62
2022/03/10 00:20:25;;;;;;;31.90;13.70;;;3.60;96.00;;;;;;5029373;28;20052;-59
2022/03/10 00:23:29;;;;;;;27.98;14.45;;;3.60;96.60;;;;;;5029584;28;20052;-59
2022/03/10 00:26:33;;;;;;;26.98;14.55;;;3.50;97.00;;;;;;5029255;28;20052;-62
2022/03/10 00:29:38;;;;;;;26.20;13.07;;;3.50;97.40;;;;;;5029807;28;20056;-62
2022/03/10 00:32:44;;;;;;;24.40;12.43;;;3.40;98.50;;;;;;5028844;28;20392;-61
2022/03/10 00:35:48;;;;;;;19.15;10.13;;;3.30;98.40;;;;;;5029205;28;20041;-59
2022/03/10 00:38:54;;;;;;;21.63;11.40;;;3.10;98.60;;;;;;5029381;28;20423;-62
2022/03/10 00:41:58;;;;;;;23.67;11.57;;;3.00;99.60;;;;;;5031847;28;20056;-62
2022/03/10 00:45:03;;;;;;;24.85;13.05;;;3.10;99.90;;;;;;5033338;28;20052;-61
2022/03/10 00:48:07;;;;;;;19.42;11.23;;;3.00;99.90;;;;;;5032540;28;20048;-62
2022/03/10 00:51:12;;;;;;;21.17;11.65;;;3.10;99.90;;;;;;5031935;28;20045;-63
2022/03/10 00:54:16;;;;;;;34.50;13.82;;;3.10;99.90;;;;;;5032643;28;20053;-61
2022/03/10 00:57:21;;;;;;;28.60;14.65;;;3.20;99.90;;;;;;5032370;28;20044;-62
2022/03/10 01:00:28;;;;;;;27.95;14.57;;;3.30;99.90;;;;;;5032724;28;20053;-62
2022/03/10 01:03:32;;;;;;;32.30;17.27;;;3.30;99.90;;;;;;5032526;28;20056;-62
2022/03/10 01:06:38;;;;;;;36.90;17.65;;;3.30;99.90;;;;;;5032922;28;20053;-62
2022/03/10 01:09:43;;;;;;;30.73;16.90;;;3.30;99.90;;;;;;5032262;28;20040;-62
2022/03/10 01:12:48;;;;;;;45.83;24.02;;;3.20;99.90;;;;;;5032233;28;20056;-62
2022/03/10 01:15:53;;;;;;;47.17;24.17;;;3.00;99.90;;;;;;5032343;28;20056;-62
2022/03/10 01:18:57;;;;;;;49.92;23.40;;;2.90;99.90;;;;;;5032157;28;20108;-62
2022/03/10 01:22:01;;;;;;;40.13;20.15;;;2.80;99.90;;;;;;5031566;28;20056;-62
2022/03/10 01:25:07;;;;;;;35.90;18.73;;;2.80;99.90;;;;;;5031917;28;20049;-62
2022/03/10 01:28:12;;;;;;;39.70;21.00;;;2.60;99.90;;;;;;5032299;28;20044;-62
2022/03/10 01:31:16;;;;;;;39.55;20.83;;;2.60;99.90;;;;;;5031198;28;20392;-61
2022/03/10 01:34:20;;;;;;;50.92;22.10;;;2.60;99.90;;;;;;5031377;28;20044;-61
2022/03/10 01:37:24;;;;;;;45.97;23.65;;;2.50;99.90;;;;;;5032044;28;20045;-61
2022/03/10 01:40:27;;;;;;;45.65;22.73;;;2.50;99.90;;;;;;5031911;28;20061;-61
2022/03/10 01:43:31;;;;;;;47.78;22.40;;;2.60;99.90;;;;;;5031891;28;20048;-61
2022/03/10 01:46:37;;;;;;;43.28;22.98;;;2.60;99.90;;;;;;5031564;28;20044;-62
2022/03/10 01:49:41;;;;;;;44.40;23.02;;;2.60;99.90;;;;;;5031893;28;20049;-61
2022/03/10 01:52:45;;;;;;;42.25;22.38;;;2.70;99.90;;;;;;5030782;28;20052;-61
2022/03/10 01:55:49;;;;;;;67.32;32.08;;;2.60;99.90;;;;;;5030357;28;20048;-61
2022/03/10 01:58:54;;;;;;;47.88;24.67;;;2.70;99.90;;;;;;5031188;28;20522;-62
2022/03/10 02:01:59;;;;;;;47.55;24.95;;;2.70;99.90;;;;;;5030670;28;20404;-61
2022/03/10 02:05:04;;;;;;;43.00;22.40;;;2.60;99.90;;;;;;5031218;28;20036;-62
2022/03/10 02:11:31;;;;;;;45.45;22.42;;;2.50;99.90;;;;;;5030625;28;20504;-62
2022/03/10 02:17:58;;;;;;;39.90;20.45;;;2.50;99.90;;;;;;5030784;28;20049;-61
2022/03/10 02:21:02;;;;;;;38.35;20.38;;;2.50;99.90;;;;;;5030509;28;20060;-61
2022/03/10 02:24:08;;;;;;;35.15;19.15;;;2.50;99.90;;;;;;5030772;28;20045;-61
2022/03/10 02:27:18;;;;;;;49.75;24.25;;;2.50;99.90;;;;;;5030059;28;20061;-61
2022/03/10 02:30:25;;;;;;;37.05;19.23;;;2.50;99.90;;;;;;5031334;28;20056;-62
2022/03/10 02:33:29;;;;;;;27.48;14.88;;;2.40;99.90;;;;;;5030681;28;20041;-61
2022/03/10 02:36:32;;;;;;;28.75;14.13;;;2.40;99.90;;;;;;5030639;28;20037;-61
2022/03/10 02:39:39;;;;;;;23.13;12.50;;;2.40;99.90;;;;;;5030756;28;20037;-62
2022/03/10 02:42:43;;;;;;;27.42;13.32;;;2.40;99.90;;;;;;5029954;28;20064;-61
2022/03/10 02:45:47;;;;;;;27.90;13.02;;;2.40;99.90;;;;;;5029801;28;20478;-60
2022/03/10 02:48:51;;;;;;;21.92;12.00;;;2.40;99.90;;;;;;5030401;28;20032;-61
2022/03/10 02:51:56;;;;;;;30.77;13.77;;;2.50;99.90;;;;;;5030040;28;20388;-62
2022/03/10 02:55:00;;;;;;;27.05;15.23;;;2.50;99.90;;;;;;5030887;28;20507;-61
2022/03/10 02:58:04;;;;;;;39.05;18.58;;;2.40;99.90;;;;;;5029770;28;20064;-62
2022/03/10 03:01:08;;;;;;;32.65;17.73;;;2.10;99.90;;;;;;5030265;28;20404;-61
2022/03/10 03:04:12;;;;;;;38.10;16.92;;;1.80;99.90;;;;;;5030575;28;20064;-61
2022/03/10 03:07:16;;;;;;;30.73;15.82;;;1.60;99.90;;;;;;5030397;28;20381;-61
2022/03/10 03:10:20;;;;;;;33.67;16.88;;;1.50;99.90;;;;;;5030893;28;20567;-61
2022/03/10 03:13:24;;;;;;;39.28;18.33;;;1.50;99.90;;;;;;5030396;28;20503;-62
2022/03/10 03:16:29;;;;;;;38.50;18.15;;;1.40;99.90;;;;;;5030275;28;20053;-61
2022/03/10 03:19:33;;;;;;;32.45;16.17;;;1.40;99.90;;;;;;5030345;28;20060;-61
2022/03/10 03:22:37;;;;;;;27.63;14.93;;;1.40;99.90;;;;;;5029675;28;20059;-61
2022/03/10 03:25:41;;;;;;;27.23;13.30;;;1.40;99.90;;;;;;5030514;28;20105;-61
2022/03/10 03:28:45;;;;;;;25.40;13.27;;;1.50;99.90;;;;;;5029993;28;20052;-61
2022/03/10 03:31:49;;;;;;;25.70;13.55;;;1.60;99.90;;;;;;5029859;28;20060;-61
2022/03/10 03:34:53;;;;;;;22.85;12.27;;;1.70;99.90;;;;;;5030052;28;20338;-62
2022/03/10 03:37:57;;;;;;;21.40;11.35;;;1.70;99.90;;;;;;5030101;28;20052;-62
2022/03/10 03:41:01;;;;;;;21.17;11.32;;;1.70;99.90;;;;;;5029560;28;20053;-61
2022/03/10 03:44:09;;;;;;;26.70;11.57;;;1.70;99.90;;;;;;5029795;28;20384;-61
2022/03/10 03:47:13;;;;;;;25.63;13.88;;;1.70;99.90;;;;;;5030264;28;20056;-61
2022/03/10 03:50:17;;;;;;;23.75;11.20;;;1.70;99.90;;;;;;5030041;28;20514;-61
2022/03/10 03:53:21;;;;;;;21.55;10.90;;;1.70;99.90;;;;;;5030295;28;20052;-62
2022/03/10 03:56:25;;;;;;;20.73;10.90;;;1.70;99.90;;;;;;5030097;28;20060;-61
2022/03/10 03:59:29;;;;;;;23.42;11.10;;;1.70;99.90;;;;;;5029943;28;20056;-61
2022/03/10 04:02:33;;;;;;;21.63;10.90;;;1.60;99.90;;;;;;5029629;28;20404;-62
2022/03/10 04:05:39;;;;;;;22.50;10.75;;;1.60;99.90;;;;;;5029802;28;20056;-61
2022/03/10 04:08:43;;;;;;;21.38;11.02;;;1.60;99.90;;;;;;5029912;28;20045;-61
2022/03/10 04:11:47;;;;;;;30.02;12.35;;;1.60;99.90;;;;;;5029364;28;20052;-61
2022/03/10 04:14:51;;;;;;;28.75;14.57;;;1.70;99.90;;;;;;5029757;28;20053;-61
2022/03/10 04:17:55;;;;;;;21.25;11.50;;;1.70;99.90;;;;;;5033424;28;20507;-61
2022/03/10 04:20:59;;;;;;;26.27;13.25;;;1.60;99.90;;;;;;5032743;28;20040;-61
2022/03/10 04:24:04;;;;;;;32.10;16.13;;;1.60;99.90;;;;;;5033121;28;20401;-61
2022/03/10 04:27:10;;;;;;;31.58;14.88;;;1.50;99.90;;;;;;5033388;28;20053;-61
2022/03/10 04:30:14;;;;;;;30.90;16.30;;;1.40;99.90;;;;;;5032987;28;20499;-61
2022/03/10 04:33:18;;;;;;;32.92;16.75;;;1.30;99.90;;;;;;5032978;28;20060;-61
2022/03/10 04:36:23;;;;;;;28.42;14.98;;;1.10;99.90;;;;;;5033163;28;20060;-61
2022/03/10 04:39:27;;;;;;;26.45;13.30;;;1.10;99.90;;;;;;5033143;28;20404;-61
2022/03/10 04:42:31;;;;;;;25.13;13.73;;;1.10;99.90;;;;;;5032082;28;20056;-61
2022/03/10 04:45:35;;;;;;;31.15;15.80;;;1.00;99.90;;;;;;5033132;28;20057;-61
2022/03/10 04:48:38;;;;;;;34.38;18.88;;;1.00;99.90;;;;;;5032284;28;20036;-60
2022/03/10 04:51:43;;;;;;;31.83;15.02;;;0.90;99.90;;;;;;5032589;28;20056;-61
2022/03/10 04:54:47;;;;;;;28.38;15.20;;;1.00;99.90;;;;;;5032903;28;20052;-61
2022/03/10 04:57:51;;;;;;;31.80;15.57;;;0.90;99.90;;;;;;5032006;28;20404;-61
2022/03/10 05:00:55;;;;;;;29.65;14.82;;;0.90;99.90;;;;;;5032117;28;20060;-61
2022/03/10 05:03:59;;;;;;;30.17;15.98;;;0.80;99.90;;;;;;5031557;28;20123;-60
2022/03/10 05:07:04;;;;;;;36.75;17.08;;;0.60;99.90;;;;;;5032671;28;20041;-61
2022/03/10 05:10:09;;;;;;;35.58;17.23;;;0.50;99.90;;;;;;5032592;28;20068;-62
2022/03/10 05:13:13;;;;;;;33.08;16.88;;;0.50;99.90;;;;;;5032231;28;20048;-61
2022/03/10 05:16:17;;;;;;;27.17;15.07;;;0.60;99.90;;;;;;5032417;28;20052;-61
2022/03/10 05:19:21;;;;;;;24.88;13.20;;;0.60;99.90;;;;;;5032243;28;20044;-61
2022/03/10 05:22:40;;;;;;;30.58;12.02;;;0.70;99.90;;;;;;5031602;28;20048;-61
2022/03/10 05:25:44;;;;;;;21.10;10.88;;;0.60;99.90;;;;;;5032270;28;20425;-61
2022/03/10 05:28:48;;;;;;;23.35;12.43;;;0.60;99.90;;;;;;5030945;28;20495;-61
2022/03/10 05:31:52;;;;;;;24.42;12.48;;;0.60;99.90;;;;;;5031620;28;20056;-61
2022/03/10 05:34:56;;;;;;;31.48;13.27;;;0.60;99.90;;;;;;5032044;28;20052;-61
2022/03/10 05:38:00;;;;;;;25.60;15.48;;;0.50;99.90;;;;;;5032141;28;20056;-61
2022/03/10 05:41:05;;;;;;;28.38;15.25;;;0.50;99.90;;;;;;5030976;28;20044;-61
2022/03/10 05:44:09;;;;;;;29.60;14.63;;;0.50;99.90;;;;;;5031733;28;20048;-61
2022/03/10 05:47:13;;;;;;;28.60;14.45;;;0.50;99.90;;;;;;5032009;28;20053;-61
2022/03/10 05:50:18;;;;;;;26.60;13.90;;;0.50;99.90;;;;;;5031070;28;20040;-61
2022/03/10 05:53:22;;;;;;;28.05;14.13;;;0.50;99.90;;;;;;5031808;28;20044;-62
2022/03/10 05:56:25;;;;;;;27.52;13.68;;;0.70;99.90;;;;;;5031464;28;20060;-61
2022/03/10 05:59:29;;;;;;;27.50;13.57;;;0.70;99.90;;;;;;5031119;28;20042;-60
2022/03/10 06:02:34;;;;;;;27.58;14.30;;;0.80;99.90;;;;;;5031078;28;20049;-61
2022/03/10 06:05:38;;;;;;;29.05;13.63;;;0.90;99.90;;;;;;5031163;28;20053;-61
2022/03/10 06:08:43;;;;;;;32.30;14.93;;;1.00;99.90;;;;;;5031584;28;20052;-61
2022/03/10 06:11:47;;;;;;;24.88;14.15;;;1.10;99.90;;;;;;5030766;28;20060;-61
2022/03/10 06:14:58;;;;;;;29.55;14.13;;;1.30;99.90;;;;;;5030602;28;20040;-61
2022/03/10 06:18:02;;;;;;;30.33;17.10;;;1.30;99.90;;;;;;5031498;28;20388;-62
2022/03/10 06:21:07;;;;;;;27.83;16.40;;;1.50;99.90;;;;;;5030209;28;20044;-62
2022/03/10 06:24:12;;;;;;;32.53;19.85;;;1.80;99.90;;;;;;5031727;28;20049;-59
2022/03/10 06:27:18;;;;;;;27.38;15.15;;;4.60;99.90;;;;;;5031548;28;20053;-60
2022/03/10 06:30:22;;;;;;;30.05;14.60;;;8.20;99.90;;;;;;5030839;28;20076;-59
2022/03/10 06:33:26;;;;;;;31.70;16.20;;;10.50;95.70;;;;;;5031249;28;20064;-60
2022/03/10 06:36:29;;;;;;;26.60;14.32;;;12.00;92.80;;;;;;5031127;28;20052;-59
2022/03/10 06:39:34;;;;;;;23.50;14.65;;;13.40;90.30;;;;;;5030674;28;20419;-59
2022/03/10 06:42:38;;;;;;;24.92;14.10;;;14.70;86.10;;;;;;5030268;28;20404;-60
2022/03/10 06:45:42;;;;;;;26.08;14.40;;;16.20;81.30;;;;;;5031013;28;20358;-60
2022/03/10 06:48:46;;;;;;;21.38;13.85;;;16.80;76.40;;;;;;5030943;28;20044;-60
2022/03/10 06:51:50;;;;;;;23.63;14.50;;;17.60;72.10;;;;;;5030076;28;20048;-60
2022/03/10 06:54:54;;;;;;;26.67;15.70;;;18.40;69.70;;;;;;5031021;28;20397;-59
2022/03/10 06:57:58;;;;;;;21.58;14.32;;;19.10;67.10;;;;;;5030483;28;20072;-60
2022/03/10 07:01:03;;;;;;;22.50;16.27;;;19.50;65.20;;;;;;5028917;28;20404;-60
2022/03/10 07:04:07;;;;;;;28.10;14.50;;;19.90;63.50;;;;;;5025418;28;20496;-60
2022/03/10 07:07:11;;;;;;;21.50;14.75;;;19.70;63.10;;;;;;5026727;28;20040;-60
2022/03/10 07:10:15;;;;;;;22.42;14.82;;;19.70;62.60;;;;;;5030031;28;20044;-60
2022/03/10 07:13:20;;;;;;;21.73;13.98;;;19.50;63.50;;;;;;5027522;28;20041;-60
2022/03/10 07:16:24;;;;;;;37.80;26.35;;;20.00;61.70;;;;;;5028638;28;20045;-60
2022/03/10 07:19:28;;;;;;;36.75;22.58;;;20.30;60.30;;;;;;5027045;28;20092;-59
2022/03/10 07:22:32;;;;;;;29.20;18.17;;;20.70;60.00;;;;;;5019921;28;20044;-59
2022/03/10 07:25:36;;;;;;;25.90;17.30;;;18.40;60.60;;;;;;5026684;28;20044;-59
2022/03/10 07:28:40;;;;;;;25.05;17.25;;;16.00;63.40;;;;;;5027582;28;20049;-59
2022/03/10 07:31:44;;;;;;;26.40;18.45;;;14.50;66.30;;;;;;5028245;28;20372;-59
2022/03/10 07:34:49;;;;;;;25.05;17.73;;;13.50;68.90;;;;;;5028803;28;20487;-59
2022/03/10 07:37:55;;;;;;;29.17;20.00;;;11.90;71.10;;;;;;5022888;28;20045;-59
2022/03/10 07:41:00;;;;;;;29.50;20.15;;;10.80;73.30;;;;;;5026497;28;20040;-59
2022/03/10 07:44:04;;;;;;;28.13;17.85;;;11.50;74.70;;;;;;5029285;28;20317;-61
2022/03/10 07:47:09;;;;;;;29.88;18.17;;;12.00;74.40;;;;;;5024648;28;20044;-59
2022/03/10 07:50:13;;;;;;;34.00;22.83;;;13.20;73.40;;;;;;5027541;28;20033;-60
2022/03/10 07:53:19;;;;;;;39.15;24.80;;;14.10;70.70;;;;;;5030941;28;20052;-60
2022/03/10 07:56:23;;;;;;;40.92;26.00;;;15.40;69.50;;;;;;5030443;28;20057;-59
2022/03/10 07:59:27;;;;;;;43.70;28.02;;;16.40;67.40;;;;;;5029298;28;20052;-60
2022/03/10 08:02:31;;;;;;;42.08;26.75;;;15.60;66.50;;;;;;5026414;28;20056;-60
2022/03/10 08:05:35;;;;;;;42.33;27.05;;;15.70;67.10;;;;;;5029683;28;20056;-59
2022/03/10 08:08:39;;;;;;;39.22;25.27;;;15.20;68.10;;;;;;5032190;28;20078;-59
2022/03/10 08:11:43;;;;;;;31.17;22.30;;;16.80;65.90;;;;;;5031401;28;20045;-59
2022/03/10 08:14:47;;;;;;;31.08;21.70;;;16.90;65.80;;;;;;5032788;28;20045;-60
2022/03/10 08:17:52;;;;;;;30.67;21.17;;;16.90;64.00;;;;;;5022988;28;20044;-60
2022/03/10 08:20:59;;;;;;;28.33;20.10;;;17.40;65.20;;;;;;5029893;28;20053;-60
2022/03/10 08:24:04;;;;;;;27.58;17.83;;;19.10;63.60;;;;;;5031228;28;20040;-60
2022/03/10 08:27:08;;;;;;;24.95;19.05;;;21.40;59.70;;;;;;5029742;28;20048;-60
2022/03/10 08:30:13;;;;;;;25.58;18.05;;;22.60;58.10;;;;;;5027230;28;20041;-60
2022/03/10 08:33:17;;;;;;;27.42;18.73;;;23.30;56.90;;;;;;5029368;28;20045;-60
2022/03/10 08:36:21;;;;;;;27.05;17.90;;;23.60;56.90;;;;;;5031623;28;20501;-60
2022/03/10 08:39:26;;;;;;;21.38;15.95;;;24.20;56.00;;;;;;5030211;28;20048;-60
2022/03/10 08:42:30;;;;;;;20.05;15.35;;;25.00;52.60;;;;;;5029819;28;20219;-60
2022/03/10 08:45:34;;;;;;;20.15;13.57;;;25.90;52.80;;;;;;5029932;28;20053;-60
2022/03/10 08:48:39;;;;;;;14.23;12.07;;;27.40;51.30;;;;;;5032062;28;20032;-60
2022/03/10 08:51:44;;;;;;;17.02;13.32;;;28.30;48.80;;;;;;5029214;28;20404;-60
2022/03/10 08:54:48;;;;;;;19.17;12.73;;;28.40;48.90;;;;;;5024436;28;20037;-60
2022/03/10 08:57:53;;;;;;;18.30;12.18;;;28.70;48.30;;;;;;5025454;28;20398;-61
2022/03/10 09:00:57;;;;;;;14.15;11.57;;;29.50;47.00;;;;;;5023265;28;20393;-60
2022/03/10 09:04:02;;;;;;;15.75;11.75;;;29.80;46.30;;;;;;5028227;28;20503;-61
2022/03/10 09:07:07;;;;;;;17.25;11.70;;;30.40;45.10;;;;;;5029203;28;20060;-60
2022/03/10 09:10:11;;;;;;;16.13;12.00;;;30.40;44.70;;;;;;5027047;28;20052;-60
2022/03/10 09:13:15;;;;;;;15.68;11.15;;;30.30;44.70;;;;;;5029005;28;20049;-60
2022/03/10 09:16:22;;;;;;;13.90;11.23;;;30.20;45.00;;;;;;5026451;28;20040;-61
2022/03/10 09:19:26;;;;;;;17.02;11.73;;;30.20;44.80;;;;;;5027939;28;20045;-61
2022/03/10 09:22:30;;;;;;;16.90;12.23;;;31.20;44.30;;;;;;5025082;28;20388;-61
2022/03/10 09:25:34;;;;;;;13.82;12.27;;;30.70;43.80;;;;;;5032676;28;20487;-60
2022/03/10 09:28:38;;;;;;;18.08;12.98;;;29.60;44.40;;;;;;5027140;28;20044;-60
2022/03/10 09:31:42;;;;;;;18.90;13.40;;;28.60;44.60;;;;;;5025947;28;20483;-61
2022/03/10 09:34:46;;;;;;;18.38;12.93;;;28.40;45.50;;;;;;5027018;28;20040;-61
2022/03/10 09:37:52;;;;;;;18.98;11.73;;;28.60;45.10;;;;;;5025093;28;20037;-61
2022/03/10 09:40:55;;;;;;;14.55;12.10;;;30.60;45.90;;;;;;5026456;28;20033;-61
2022/03/10 09:44:00;;;;;;;14.43;11.82;;;30.90;45.10;;;;;;5029723;28;20483;-61
2022/03/10 09:47:05;;;;;;;12.32;10.88;;;32.70;44.50;;;;;;5029237;28;20041;-61
2022/03/10 09:50:13;;;;;;;15.85;10.43;;;34.50;43.60;;;;;;5026045;28;20044;-61
2022/03/10 09:53:19;;;;;;;12.05;10.30;;;35.70;42.20;;;;;;5027240;28;20052;-61
2022/03/10 09:56:23;;;;;;;14.25;10.32;;;33.50;43.10;;;;;;5028475;28;20044;-61
2022/03/10 09:59:27;;;;;;;11.57;9.52;;;33.50;42.10;;;;;;5030104;28;20595;-61
2022/03/10 10:02:32;;;;;;;13.60;10.93;;;34.50;42.10;;;;;;5026467;28;20044;-61
2022/03/10 10:05:40;;;;;;;15.23;9.80;;;35.30;41.40;;;;;;5028367;28;20036;-61
2022/03/10 10:08:54;;;;;;;10.63;9.50;;;32.50;40.60;;;;;;5026074;28;20041;-60
2022/03/10 10:12:06;;;;;;;11.68;8.57;;;32.40;41.70;;;;;;5024609;28;20384;-61
2022/03/10 10:15:10;;;;;;;12.55;8.77;;;33.50;42.20;;;;;;5030523;28;20388;-60
2022/03/10 10:18:15;;;;;;;12.15;9.48;;;34.50;40.50;;;;;;5027977;28;20113;-60
2022/03/10 10:21:23;;;;;;;9.95;8.05;;;30.10;41.40;;;;;;5030080;28;20368;-60
2022/03/10 10:24:28;;;;;;;11.77;7.68;;;32.00;41.90;;;;;;5027221;28;20040;-60
2022/03/10 10:27:33;;;;;;;8.95;7.63;;;33.80;40.20;;;;;;5023446;28;20070;-60
2022/03/10 10:30:52;;;;;;;10.57;7.07;;;33.90;39.40;;;;;;5027137;28;20048;-60
2022/03/10 10:34:09;;;;;;;9.25;7.30;;;31.10;38.40;;;;;;5030962;28;20048;-63
2022/03/10 10:37:22;;;;;;;8.52;7.07;;;33.40;39.70;;;;;;5023587;28;20052;-61
2022/03/10 10:40:27;;;;;;;12.55;7.35;;;33.60;39.30;;;;;;5019935;28;21761;-62
2022/03/10 10:43:43;;;;;;;10.60;7.57;;;34.70;39.90;;;;;;5021844;28;20045;-60
2022/03/10 10:46:58;;;;;;;9.18;7.35;;;26.60;40.20;;;;;;5027055;28;20060;-60
2022/03/10 10:50:05;;;;;;;7.80;6.85;;;27.60;41.20;;;;;;5026586;28;20048;-61
2022/03/10 10:53:30;;;;;;;12.23;6.75;;;28.70;39.90;;;;;;5029037;28;20032;-62
2022/03/10 10:56:44;;;;;;;7.68;5.63;;;31.90;40.90;;;;;;5026697;28;20049;-61
2022/03/10 11:00:08;;;;;;;7.45;6.22;;;35.00;39.30;;;;;;5027492;28;20052;-60
2022/03/10 11:03:23;;;;;;;9.98;6.05;;;35.50;38.60;;;;;;5025453;28;20044;-59
2022/03/10 11:06:27;;;;;;;6.50;5.80;;;35.90;37.50;;;;;;5025592;28;20052;-60
2022/03/10 11:09:32;;;;;;;8.20;6.80;;;35.80;37.70;;;;;;5030584;28;20036;-60
2022/03/10 11:12:39;;;;;;;8.85;7.28;;;36.10;37.90;;;;;;5023825;28;20048;-60
2022/03/10 11:15:44;;;;;;;8.32;6.63;;;31.10;38.50;;;;;;5011293;28;20048;-60
2022/03/10 11:18:51;;;;;;;7.90;6.38;;;32.30;39.40;;;;;;5026195;28;20109;-60
2022/03/10 11:22:02;;;;;;;12.20;6.35;;;34.40;38.20;;;;;;5029124;28;20036;-61
2022/03/10 11:25:31;;;;;;;8.23;6.43;;;34.20;37.00;;;;;;5025245;28;20032;-60
2022/03/10 11:28:45;;;;;;;6.43;5.38;;;35.40;37.80;;;;;;5029256;28;20499;-61
2022/03/10 11:31:52;;;;;;;6.93;5.60;;;36.20;36.40;;;;;;5026088;28;20056;-60
2022/03/10 11:35:00;;;;;;;11.20;6.22;;;36.20;36.90;;;;;;5022690;28;20052;-61
2022/03/10 11:38:05;;;;;;;11.20;7.47;;;33.70;37.50;;;;;;5028107;28;20480;-61
2022/03/10 11:41:09;;;;;;;9.05;6.80;;;34.00;37.70;;;;;;5025513;28;20045;-60
2022/03/10 11:44:18;;;;;;;10.52;7.28;;;35.20;38.20;;;;;;5027717;28;20044;-60
2022/03/10 11:47:22;;;;;;;11.18;7.50;;;36.40;38.10;;;;;;5027636;28;20388;-61
2022/03/10 11:50:27;;;;;;;8.93;6.75;;;34.50;38.10;;;;;;5025056;28;20057;-61
2022/03/10 11:53:56;;;;;;;8.85;6.97;;;36.40;39.40;;;;;;5024779;28;20137;-60
2022/03/10 11:57:03;;;;;;;7.07;5.50;;;37.20;38.80;;;;;;5039089;28;20057;-61
2022/03/10 12:00:08;;;;;;;7.45;5.20;;;37.90;37.00;;;;;;5026922;28;20040;-61
2022/03/10 12:03:36;;;;;;;11.77;5.10;;;38.00;36.70;;;;;;5024743;28;20036;-60
2022/03/10 12:06:58;;;;;;;5.43;4.93;;;36.70;34.70;;;;;;5028374;28;20053;-61
2022/03/10 12:10:08;;;;;;;9.50;4.90;;;35.70;36.10;;;;;;5023237;28;20155;-60
2022/03/10 12:13:29;;;;;;;8.40;4.90;;;33.50;34.40;;;;;;5026564;28;20092;-60
2022/03/10 12:16:33;;;;;;;8.30;5.50;;;34.10;37.40;;;;;;5028336;28;20048;-60
2022/03/10 12:20:15;;;;;;;7.18;5.82;;;35.50;37.10;;;;;;5021937;28;20036;-61
2022/03/10 12:23:22;;;;;;;8.48;6.50;;;35.50;37.10;;;;;;5022827;28;20057;-61
2022/03/10 12:26:39;;;;;;;9.25;6.60;;;35.60;37.40;;;;;;5027289;28;20053;-61
2022/03/10 12:29:47;;;;;;;9.10;7.40;;;35.70;37.30;;;;;;5025991;28;20063;-61
2022/03/10 12:32:53;;;;;;;13.25;7.10;;;34.10;39.70;;;;;;5026956;28;20464;-60
2022/03/10 12:35:59;;;;;;;8.82;7.32;;;35.50;38.60;;;;;;5020881;28;20049;-61
2022/03/10 12:39:07;;;;;;;10.52;7.63;;;35.70;38.20;;;;;;5030982;28;20048;-61
2022/03/10 12:42:11;;;;;;;9.32;7.05;;;35.40;39.10;;;;;;5027395;28;20045;-60
2022/03/10 12:45:20;;;;;;;9.02;7.28;;;34.90;38.10;;;;;;5027166;28;20029;-62
2022/03/10 12:48:45;;;;;;;10.00;7.25;;;35.00;38.10;;;;;;5031133;28;20052;-61
2022/03/10 12:51:50;;;;;;;12.00;7.05;;;34.90;38.90;;;;;;5029998;28;20045;-61
2022/03/10 12:54:56;;;;;;;8.73;7.10;;;35.20;38.90;;;;;;5029840;28;20400;-61
2022/03/10 12:58:00;;;;;;;9.60;7.32;;;35.10;39.20;;;;;;5026526;28;20158;-62
2022/03/10 13:01:09;;;;;;;9.10;6.82;;;34.70;38.30;;;;;;5028780;28;20480;-61
2022/03/10 13:04:13;;;;;;;8.90;6.70;;;34.80;38.40;;;;;;5029794;28;20040;-61
2022/03/10 13:07:20;;;;;;;8.55;6.70;;;33.00;38.10;;;;;;5030256;28;20053;-61
2022/03/10 13:10:25;;;;;;;9.25;6.97;;;32.90;37.70;;;;;;5030791;28;20052;-61
2022/03/10 13:13:29;;;;;;;11.93;6.93;;;33.00;38.00;;;;;;5031253;28;20534;-62
2022/03/10 13:16:35;;;;;;;10.07;7.25;;;32.50;37.70;;;;;;5033690;28;20045;-61
2022/03/10 13:19:41;;;;;;;12.82;7.88;;;32.20;38.80;;;;;;5029135;28;20507;-62
2022/03/10 13:23:03;;;;;;;10.63;7.88;;;32.10;39.00;;;;;;5028546;28;20044;-63
2022/03/10 13:26:07;;;;;;;9.70;7.05;;;32.30;39.40;;;;;;5024262;28;20044;-63
2022/03/10 13:29:14;;;;;;;13.23;8.32;;;32.60;39.40;;;;;;5031322;28;20048;-61
2022/03/10 13:32:24;;;;;;;12.90;7.75;;;32.80;38.90;;;;;;5031372;28;20052;-61
2022/03/10 13:35:38;;;;;;;10.70;7.03;;;32.50;38.60;;;;;;5030895;28;20037;-60
2022/03/10 13:38:44;;;;;;;12.30;7.28;;;31.50;38.50;;;;;;5024208;28;20048;-60
2022/03/10 13:41:48;;;;;;;10.23;7.57;;;31.00;38.60;;;;;;5031624;28;20041;-61
2022/03/10 13:45:06;;;;;;;9.82;7.70;;;29.80;39.10;;;;;;5031699;28;20076;-61
2022/03/10 13:48:18;;;;;;;10.57;6.97;;;31.10;38.50;;;;;;5024312;28;20048;-61
2022/03/10 13:51:24;;;;;;;10.13;6.88;;;30.80;38.90;;;;;;5030262;28;20041;-61
2022/03/10 13:54:28;;;;;;;17.25;7.10;;;30.40;38.70;;;;;;5030281;28;20049;-60
2022/03/10 13:57:33;;;;;;;11.20;7.18;;;30.10;39.60;;;;;;5024067;28;20040;-61
2022/03/10 14:00:45;;;;;;;11.18;7.32;;;30.60;38.50;;;;;;5030104;28;20029;-60
2022/03/10 14:03:53;;;;;;;10.35;8.05;;;30.70;38.90;;;;;;5029266;28;20041;-61
2022/03/10 14:07:07;;;;;;;73.93;60.67;;;30.40;38.60;;;;;;5026618;28;20044;-61
2022/03/10 14:10:11;;;;;;;16.40;13.02;;;30.40;38.10;;;;;;5029540;28;20052;-60
2022/03/10 14:13:15;;;;;;;16.13;10.00;;;30.90;38.00;;;;;;5018179;28;20053;-61
2022/03/10 14:16:20;;;;;;;10.73;6.80;;;31.00;37.60;;;;;;5027220;28;20037;-61
2022/03/10 14:19:29;;;;;;;12.18;8.00;;;29.50;35.90;;;;;;5028620;28;20044;-61
2022/03/10 14:22:35;;;;;;;12.63;7.10;;;29.50;39.20;;;;;;5028450;28;20048;-60
2022/03/10 14:25:51;;;;;;;10.05;6.75;;;29.60;37.60;;;;;;5028216;28;20040;-60
2022/03/10 14:28:56;;;;;;;7.93;6.85;;;30.00;38.00;;;;;;5027130;28;20048;-61
2022/03/10 14:32:00;;;;;;;8.77;6.40;;;30.30;37.20;;;;;;5030187;28;20040;-61
2022/03/10 14:35:04;;;;;;;29.67;7.22;;;30.50;37.20;;;;;;5025881;28;20080;-60
2022/03/10 14:38:09;;;;;;;11.40;8.65;;;29.40;37.20;;;;;;5027361;28;20048;-60
2022/03/10 14:41:20;;;;;;;10.18;7.80;;;28.00;37.80;;;;;;5027686;28;20040;-60
2022/03/10 14:44:24;;;;;;;9.50;6.47;;;27.50;39.30;;;;;;5027588;28;20215;-61
2022/03/10 14:47:29;;;;;;;8.88;6.60;;;27.10;39.00;;;;;;5027035;28;20041;-61
2022/03/10 14:50:34;;;;;;;9.68;6.60;;;27.00;39.10;;;;;;5028686;28;20052;-60
2022/03/10 14:53:39;;;;;;;14.57;8.10;;;26.90;39.20;;;;;;5028962;28;20061;-61
2022/03/10 14:56:43;;;;;;;7.63;6.38;;;26.70;39.20;;;;;;5027252;28;20048;-60
2022/03/10 14:59:47;;;;;;;11.88;6.80;;;26.30;39.10;;;;;;5029304;28;20041;-63
2022/03/10 15:02:51;;;;;;;12.68;6.30;;;25.80;39.30;;;;;;5029664;28;20044;-63
2022/03/10 15:05:54;;;;;;;12.30;6.78;;;25.60;39.70;;;;;;5011529;28;20492;-62
2022/03/10 15:09:04;;;;;;;11.05;7.15;;;25.70;39.60;;;;;;5029974;28;20049;-62
2022/03/10 15:12:09;;;;;;;10.35;6.40;;;25.50;38.80;;;;;;5029148;28;20397;-62
2022/03/10 15:15:13;;;;;;;9.68;7.65;;;25.10;38.40;;;;;;5028744;28;20041;-62
2022/03/10 15:18:18;;;;;;;8.45;6.10;;;24.80;38.30;;;;;;5024757;28;20397;-62
2022/03/10 15:21:22;;;;;;;7.40;5.40;;;24.60;39.30;;;;;;5028505;28;20049;-62
2022/03/10 15:24:26;;;;;;;9.57;5.88;;;24.50;39.70;;;;;;5029792;28;20512;-62
2022/03/10 15:27:29;;;;;;;8.45;6.22;;;24.30;39.70;;;;;;5029185;28;20060;-63
2022/03/10 15:30:33;;;;;;;12.65;7.45;;;23.90;40.00;;;;;;5021203;28;20495;-62
2022/03/10 15:33:38;;;;;;;10.20;5.57;;;23.20;40.90;;;;;;5029040;28;20076;-62
2022/03/10 15:36:42;;;;;;;9.73;6.22;;;22.80;41.00;;;;;;5028970;28;20037;-62
2022/03/10 15:39:46;;;;;;;8.02;4.93;;;22.50;40.80;;;;;;5028573;28;20033;-63
2022/03/10 15:42:51;;;;;;;8.00;4.93;;;21.90;41.20;;;;;;5029267;28;20041;-61
2022/03/10 15:45:55;;;;;;;14.02;4.35;;;21.50;40.60;;;;;;5010406;28;20045;-62
2022/03/10 15:48:59;;;;;;;6.78;4.80;;;21.10;40.90;;;;;;5027432;28;20078;-61
2022/03/10 15:52:04;;;;;;;6.85;4.90;;;20.80;40.80;;;;;;5028083;28;20048;-62
2022/03/10 15:55:10;;;;;;;8.77;5.32;;;20.40;41.50;;;;;;5028559;28;20041;-61
2022/03/10 15:58:16;;;;;;;10.90;5.40;;;20.10;41.00;;;;;;5028794;28;20291;-61
2022/03/10 16:01:21;;;;;;;8.90;5.13;;;20.00;42.20;;;;;;5027872;28;20049;-60